Time;durP1;ratioP1;P1;durP2;ratioP2;P2;SDS_P1;SDS_P2;PMS_P1;PMS_P2;Temp;Humidity;BMP_temperature;BMP_pressure;BME280_temperature;BME280_humidity;BME280_pressure;Samples;Min_cycle;Max_cycle;Signal;HPM_P1;HPM_P2
2023/08/21 00:01:02;;;;;;;20.33;18.30;;;23.00;99.90;;;;;;5023517;28;20491;-61
2023/08/21 00:03:27;;;;;;;21.95;19.85;;;23.00;99.90;;;;;;5029845;28;20032;-60
2023/08/21 00:05:53;;;;;;;20.92;19.17;;;23.00;99.90;;;;;;5032250;28;20040;-60
2023/08/21 00:08:19;;;;;;;21.55;19.95;;;23.00;99.90;;;;;;5033900;28;20042;-59
2023/08/21 00:10:44;;;;;;;21.00;19.27;;;22.90;99.90;;;;;;5030870;28;20469;-60
2023/08/21 00:13:10;;;;;;;23.25;21.27;;;22.90;99.90;;;;;;5032447;28;20026;-58
2023/08/21 00:15:38;;;;;;;21.35;19.63;;;22.90;99.90;;;;;;5031284;28;20092;-58
2023/08/21 00:18:04;;;;;;;22.52;20.40;;;22.80;99.90;;;;;;5032390;28;20096;-60
2023/08/21 00:20:30;;;;;;;21.17;19.58;;;22.80;99.90;;;;;;5032967;28;20040;-59
2023/08/21 00:22:56;;;;;;;21.42;19.40;;;22.70;99.90;;;;;;5028366;28;20510;-60
2023/08/21 00:25:22;;;;;;;22.95;20.58;;;22.60;99.90;;;;;;5032545;28;20028;-58
2023/08/21 00:27:48;;;;;;;22.58;20.30;;;22.60;99.90;;;;;;5027186;28;20048;-59
2023/08/21 00:30:14;;;;;;;21.52;19.63;;;22.50;99.90;;;;;;5026643;28;20552;-59
2023/08/21 00:32:41;;;;;;;21.17;19.33;;;22.50;99.90;;;;;;5028421;28;20028;-58
2023/08/21 00:35:06;;;;;;;23.75;21.02;;;22.40;99.90;;;;;;5031075;28;20026;-58
2023/08/21 00:37:32;;;;;;;22.33;20.48;;;22.40;99.90;;;;;;5027848;28;20044;-60
2023/08/21 00:39:58;;;;;;;24.75;21.08;;;22.40;99.90;;;;;;5029441;28;20021;-58
2023/08/21 00:42:23;;;;;;;22.63;20.83;;;22.30;99.90;;;;;;5028154;28;20531;-60
2023/08/21 00:44:49;;;;;;;23.02;21.10;;;22.30;99.90;;;;;;5038453;28;20021;-60
2023/08/21 00:47:15;;;;;;;23.27;21.15;;;22.30;99.90;;;;;;5031679;28;20480;-60
2023/08/21 00:49:40;;;;;;;25.17;22.58;;;22.30;99.90;;;;;;5029080;28;20038;-60
2023/08/21 00:52:10;;;;;;;23.25;21.13;;;22.20;99.90;;;;;;5023316;28;20180;-59
2023/08/21 00:54:36;;;;;;;24.25;22.25;;;22.10;99.90;;;;;;5025571;28;20042;-60
2023/08/21 00:57:02;;;;;;;23.63;21.60;;;22.20;99.90;;;;;;5037415;28;20031;-61
2023/08/21 00:59:29;;;;;;;23.92;21.60;;;22.10;99.90;;;;;;5027692;28;20401;-60
2023/08/21 01:01:54;;;;;;;24.42;22.08;;;22.10;99.90;;;;;;5028218;28;20401;-59
2023/08/21 01:04:21;;;;;;;22.77;20.65;;;22.00;99.90;;;;;;5025853;28;20022;-59
2023/08/21 01:06:48;;;;;;;25.35;22.88;;;22.00;99.90;;;;;;5027225;28;20060;-59
2023/08/21 01:09:35;;;;;;;25.55;23.33;;;22.00;99.90;;;;;;5029424;28;20116;-58
2023/08/21 01:12:24;;;;;;;25.55;23.23;;;22.00;99.90;;;;;;5027822;28;20052;-61
2023/08/21 01:15:03;;;;;;;24.42;22.13;;;21.90;99.90;;;;;;5028973;28;20377;-60
2023/08/21 01:17:30;;;;;;;25.23;22.92;;;21.90;99.90;;;;;;5029970;28;20124;-58
2023/08/21 01:19:56;;;;;;;24.40;22.23;;;21.90;99.90;;;;;;5031628;28;20029;-60
2023/08/21 01:22:38;;;;;;;28.25;23.02;;;21.90;99.90;;;;;;5025866;28;20030;-59
2023/08/21 01:25:05;;;;;;;25.75;23.38;;;21.90;99.90;;;;;;5031060;28;20123;-60
2023/08/21 01:27:32;;;;;;;26.88;24.20;;;21.80;99.90;;;;;;5029771;28;20064;-59
2023/08/21 01:29:58;;;;;;;28.00;24.20;;;21.80;99.90;;;;;;5027875;28;20024;-60
2023/08/21 01:32:59;;;;;;;24.25;22.10;;;21.80;99.90;;;;;;5027527;28;20033;-59
2023/08/21 01:35:25;;;;;;;23.98;21.80;;;21.70;99.90;;;;;;5029304;28;20063;-60
2023/08/21 01:37:52;;;;;;;23.33;21.08;;;21.70;99.90;;;;;;5023008;28;20034;-61
2023/08/21 01:40:22;;;;;;;23.00;20.58;;;21.50;99.90;;;;;;5027251;28;20113;-58
2023/08/21 01:42:48;;;;;;;23.95;21.85;;;21.50;99.90;;;;;;5030264;28;20030;-58
2023/08/21 01:45:14;;;;;;;24.70;22.45;;;21.40;99.90;;;;;;5025767;28;20029;-58
2023/08/21 01:47:39;;;;;;;23.75;21.70;;;21.40;99.90;;;;;;5029347;28;20099;-60
2023/08/21 01:50:05;;;;;;;25.40;22.92;;;21.30;99.90;;;;;;5027773;28;20026;-59
2023/08/21 01:52:31;;;;;;;22.63;20.80;;;21.30;99.90;;;;;;5027542;28;20045;-60
2023/08/21 01:54:57;;;;;;;24.70;22.42;;;21.20;99.90;;;;;;5032080;28;20056;-60
2023/08/21 01:57:23;;;;;;;21.45;19.75;;;21.20;99.90;;;;;;5027935;28;20063;-59
2023/08/21 01:59:48;;;;;;;19.38;17.45;;;21.10;99.90;;;;;;5025198;28;20057;-59
2023/08/21 02:02:14;;;;;;;19.05;17.45;;;21.10;99.90;;;;;;5025397;28;20037;-59
2023/08/21 02:04:40;;;;;;;18.33;17.00;;;21.00;99.90;;;;;;5024858;28;20033;-59
2023/08/21 02:07:07;;;;;;;19.63;17.85;;;21.00;99.90;;;;;;5026562;28;20057;-61
2023/08/21 02:09:33;;;;;;;24.42;21.92;;;21.00;99.90;;;;;;5026349;28;20121;-57
2023/08/21 02:11:58;;;;;;;23.02;21.05;;;21.00;99.90;;;;;;5025218;28;20108;-59
2023/08/21 02:14:24;;;;;;;27.08;24.35;;;21.00;99.90;;;;;;5018624;28;20584;-58
2023/08/21 02:16:49;;;;;;;30.40;25.95;;;21.00;99.90;;;;;;5024076;28;20036;-58
2023/08/21 02:19:15;;;;;;;27.58;24.75;;;21.10;99.90;;;;;;5022198;28;20157;-59
2023/08/21 02:21:41;;;;;;;26.67;24.02;;;21.00;99.90;;;;;;5021049;28;20037;-59
2023/08/21 02:24:06;;;;;;;25.23;22.73;;;21.10;99.90;;;;;;5025574;28;20028;-58
2023/08/21 02:26:32;;;;;;;23.98;21.77;;;21.10;99.90;;;;;;5024666;28;20010;-60
2023/08/21 02:28:58;;;;;;;25.40;23.25;;;21.10;99.90;;;;;;5015520;28;20072;-61
2023/08/21 02:31:23;;;;;;;24.27;22.23;;;21.10;99.90;;;;;;5023919;28;20030;-58
2023/08/21 02:33:49;;;;;;;24.50;21.95;;;21.10;99.90;;;;;;5022649;28;20148;-59
2023/08/21 02:36:16;;;;;;;25.00;22.10;;;21.10;99.90;;;;;;5027675;28;20036;-59
2023/08/21 02:38:41;;;;;;;23.15;20.67;;;21.00;99.90;;;;;;5027366;28;20528;-59
2023/08/21 02:41:07;;;;;;;21.88;19.92;;;21.00;99.90;;;;;;5029129;28;20030;-58
2023/08/21 02:43:33;;;;;;;19.33;17.92;;;20.90;99.90;;;;;;5026154;28;20033;-59
2023/08/21 02:45:59;;;;;;;20.73;18.88;;;20.80;99.90;;;;;;5028140;28;20032;-59
2023/08/21 02:48:25;;;;;;;22.45;20.52;;;20.80;99.90;;;;;;5029146;28;20116;-60
2023/08/21 02:50:50;;;;;;;21.15;19.42;;;20.80;99.90;;;;;;5027566;28;20504;-60
2023/08/21 02:53:16;;;;;;;24.85;22.73;;;20.80;99.90;;;;;;5025860;28;20030;-59
2023/08/21 02:55:41;;;;;;;25.42;22.92;;;20.80;99.90;;;;;;5026001;28;20103;-59
2023/08/21 02:58:07;;;;;;;26.77;24.15;;;20.80;99.90;;;;;;5026229;28;20026;-60
2023/08/21 03:00:34;;;;;;;29.38;25.50;;;20.80;99.90;;;;;;5025477;28;20074;-60
2023/08/21 03:02:59;;;;;;;27.83;24.92;;;20.80;99.90;;;;;;5028825;28;20543;-58
2023/08/21 03:05:25;;;;;;;25.15;22.92;;;20.80;99.90;;;;;;5029741;28;20029;-59
2023/08/21 03:07:51;;;;;;;26.58;23.98;;;20.80;99.90;;;;;;5028857;28;20102;-59
2023/08/21 03:10:16;;;;;;;24.52;22.30;;;20.80;99.90;;;;;;5033249;28;20834;-58
2023/08/21 03:12:42;;;;;;;24.40;22.30;;;20.80;99.90;;;;;;5033392;28;20037;-59
2023/08/21 03:15:08;;;;;;;22.40;20.40;;;20.80;99.90;;;;;;5034165;28;20025;-59
2023/08/21 03:17:33;;;;;;;22.65;20.40;;;20.70;99.90;;;;;;5032485;28;20025;-57
2023/08/21 03:19:59;;;;;;;23.60;20.85;;;20.70;99.90;;;;;;5027917;28;20044;-58
2023/08/21 03:22:25;;;;;;;23.67;21.40;;;20.70;99.90;;;;;;5028727;28;20034;-58
2023/08/21 03:24:50;;;;;;;22.33;20.30;;;20.70;99.90;;;;;;5029835;28;20041;-59
2023/08/21 03:27:17;;;;;;;23.60;19.60;;;20.70;99.90;;;;;;5032805;28;20548;-60
2023/08/21 03:29:48;;;;;;;22.42;20.08;;;20.60;99.90;;;;;;5031673;28;20037;-58
2023/08/21 03:32:14;;;;;;;;;;;20.70;99.90;;;;;;5030963;28;20448;-56
2023/08/21 03:34:40;;;;;;;21.50;19.50;;;20.60;99.90;;;;;;5030356;28;19953;-58
2023/08/21 03:37:05;;;;;;;21.20;19.10;;;20.50;99.90;;;;;;5029895;28;20114;-57
2023/08/21 03:39:31;;;;;;;20.50;18.85;;;20.50;99.90;;;;;;5032686;28;20029;-58
2023/08/21 03:41:56;;;;;;;19.88;18.13;;;20.40;99.90;;;;;;5024522;28;20437;-57
2023/08/21 03:44:22;;;;;;;18.40;16.75;;;20.30;99.90;;;;;;5026726;28;20748;-59
2023/08/21 03:46:48;;;;;;;15.23;14.23;;;20.20;99.90;;;;;;5028550;28;20081;-60
2023/08/21 03:49:13;;;;;;;16.10;14.77;;;20.20;99.90;;;;;;5024500;28;20033;-56
2023/08/21 03:51:39;;;;;;;14.98;13.70;;;20.20;99.90;;;;;;5025487;28;20502;-58
2023/08/21 03:54:05;;;;;;;14.48;13.23;;;20.10;99.90;;;;;;5029029;28;20029;-59
2023/08/21 03:56:30;;;;;;;14.38;13.23;;;20.10;99.90;;;;;;5029550;28;20438;-56
2023/08/21 03:58:56;;;;;;;13.23;12.25;;;20.10;99.90;;;;;;5029106;28;20033;-58
2023/08/21 04:01:22;;;;;;;15.48;14.15;;;20.10;99.90;;;;;;5027041;28;20022;-58
2023/08/21 04:03:47;;;;;;;14.50;12.88;;;20.10;99.90;;;;;;5032278;28;20041;-57
2023/08/21 04:06:13;;;;;;;12.77;11.85;;;20.10;99.90;;;;;;5032640;28;20083;-60
2023/08/21 04:08:39;;;;;;;13.40;12.20;;;20.00;99.90;;;;;;5030560;28;20029;-62
2023/08/21 04:11:06;;;;;;;12.02;11.23;;;20.00;99.90;;;;;;5029848;28;20041;-58
2023/08/21 04:13:32;;;;;;;11.38;10.52;;;19.90;99.90;;;;;;5031408;28;20038;-60
2023/08/21 04:15:57;;;;;;;9.88;9.18;;;19.90;99.90;;;;;;5032459;28;20390;-59
2023/08/21 04:18:24;;;;;;;10.25;9.65;;;19.80;99.90;;;;;;5034516;28;20053;-58
2023/08/21 04:20:49;;;;;;;11.75;11.00;;;19.80;99.90;;;;;;5032774;28;20040;-58
2023/08/21 04:23:15;;;;;;;10.55;9.85;;;19.80;99.90;;;;;;5036012;28;20037;-58
2023/08/21 04:25:41;;;;;;;10.18;9.35;;;19.80;99.90;;;;;;5028564;28;20030;-58
2023/08/21 04:28:10;;;;;;;10.45;9.43;;;19.80;99.90;;;;;;5027785;28;20033;-57
2023/08/21 04:30:35;;;;;;;10.82;10.02;;;19.80;99.90;;;;;;5026932;28;20056;-59
2023/08/21 04:33:01;;;;;;;18.25;11.32;;;19.80;99.90;;;;;;5026223;28;20046;-58
2023/08/21 04:35:27;;;;;;;12.45;11.55;;;19.80;99.90;;;;;;5030780;28;20029;-63
2023/08/21 04:37:54;;;;;;;13.55;12.23;;;19.80;99.90;;;;;;5027084;28;20573;-61
2023/08/21 04:40:21;;;;;;;12.23;11.32;;;19.90;99.90;;;;;;5032489;28;20071;-61
2023/08/21 04:42:47;;;;;;;9.32;8.52;;;19.90;99.90;;;;;;5027822;28;20441;-58
2023/08/21 04:45:13;;;;;;;9.63;8.82;;;19.80;99.90;;;;;;5030268;28;20028;-59
2023/08/21 04:47:38;;;;;;;8.45;7.85;;;19.80;99.90;;;;;;5029569;28;20021;-59
2023/08/21 04:50:04;;;;;;;10.25;9.50;;;19.70;99.90;;;;;;5021726;28;20403;-59
2023/08/21 04:52:30;;;;;;;11.20;10.18;;;19.70;99.90;;;;;;5032744;28;20098;-59
2023/08/21 04:54:56;;;;;;;11.00;10.20;;;19.60;99.90;;;;;;5047447;28;20061;-58
2023/08/21 04:57:21;;;;;;;11.02;10.13;;;19.60;99.90;;;;;;5019225;28;20494;-60
2023/08/21 04:59:48;;;;;;;11.68;10.55;;;19.60;99.90;;;;;;5024151;28;20034;-59
2023/08/21 05:02:14;;;;;;;10.35;9.55;;;19.60;99.90;;;;;;5023051;28;20022;-59
2023/08/21 05:04:40;;;;;;;11.32;10.35;;;19.60;99.90;;;;;;5029745;28;20033;-58
2023/08/21 05:07:05;;;;;;;11.88;10.88;;;19.70;99.90;;;;;;5028552;28;20485;-58
2023/08/21 05:09:32;;;;;;;12.63;11.52;;;19.70;99.90;;;;;;5027183;28;20021;-58
2023/08/21 05:11:58;;;;;;;16.40;14.85;;;19.80;99.90;;;;;;5026910;28;20025;-58
2023/08/21 05:14:24;;;;;;;24.13;17.65;;;19.80;99.90;;;;;;5027912;28;20017;-58
2023/08/21 05:16:50;;;;;;;18.70;17.00;;;19.90;99.90;;;;;;5028991;28;20489;-58
2023/08/21 05:19:16;;;;;;;15.43;14.00;;;19.90;99.90;;;;;;5024887;28;20541;-58
2023/08/21 05:21:43;;;;;;;17.00;15.35;;;20.00;99.90;;;;;;5026869;28;20240;-59
2023/08/21 05:24:08;;;;;;;17.80;16.20;;;20.10;99.90;;;;;;5027414;28;20585;-59
2023/08/21 05:26:36;;;;;;;19.60;17.88;;;20.10;99.90;;;;;;5020970;28;20032;-58
2023/08/21 05:29:02;;;;;;;22.42;20.17;;;20.20;99.90;;;;;;5024070;28;20026;-59
2023/08/21 05:31:28;;;;;;;18.33;16.60;;;20.20;99.90;;;;;;5022933;28;20025;-60
2023/08/21 05:33:53;;;;;;;16.70;15.50;;;20.30;99.90;;;;;;5024625;28;20041;-58
2023/08/21 05:36:19;;;;;;;16.98;15.50;;;20.30;99.90;;;;;;5024763;28;20022;-58
2023/08/21 05:38:47;;;;;;;15.23;13.95;;;20.30;99.90;;;;;;5030125;28;20039;-59
2023/08/21 05:41:13;;;;;;;15.73;14.35;;;20.40;99.90;;;;;;5026933;28;20030;-59
2023/08/21 05:43:42;;;;;;;16.85;15.55;;;20.40;99.90;;;;;;5025764;28;20029;-57
2023/08/21 05:46:07;;;;;;;18.00;16.50;;;20.50;99.90;;;;;;5024164;28;20093;-60
2023/08/21 05:48:33;;;;;;;18.10;16.70;;;20.50;99.90;;;;;;5031447;28;20397;-58
2023/08/21 05:50:59;;;;;;;18.42;16.85;;;20.60;99.90;;;;;;5027778;28;20064;-59
2023/08/21 05:53:25;;;;;;;18.10;16.73;;;20.60;99.90;;;;;;5028402;28;20049;-58
2023/08/21 05:55:51;;;;;;;19.50;17.70;;;20.60;99.90;;;;;;5030566;28;20087;-60
2023/08/21 05:58:17;;;;;;;18.42;16.92;;;20.70;99.90;;;;;;5027720;28;20034;-60
2023/08/21 06:00:44;;;;;;;20.50;18.58;;;20.80;99.90;;;;;;5027191;28;20031;-59
2023/08/21 06:03:10;;;;;;;19.10;17.30;;;20.90;99.90;;;;;;5028510;28;20043;-60
2023/08/21 06:05:35;;;;;;;23.05;20.80;;;21.00;99.90;;;;;;5029140;28;20389;-58
2023/08/21 06:08:01;;;;;;;21.52;19.35;;;21.10;99.90;;;;;;5031629;28;20025;-58
2023/08/21 06:10:27;;;;;;;21.98;19.08;;;21.10;99.90;;;;;;5025574;28;20026;-59
2023/08/21 06:12:53;;;;;;;21.27;19.20;;;21.20;99.90;;;;;;5026231;28;20425;-58
2023/08/21 06:15:18;;;;;;;22.00;19.88;;;21.30;99.90;;;;;;5031788;28;21077;-57
2023/08/21 06:17:46;;;;;;;20.83;18.98;;;21.40;99.90;;;;;;5023869;28;20421;-59
2023/08/21 06:20:13;;;;;;;22.80;20.55;;;21.50;99.90;;;;;;5030182;28;20052;-60
2023/08/21 06:22:39;;;;;;;22.88;20.65;;;21.50;99.90;;;;;;5029656;28;20068;-59
2023/08/21 06:25:05;;;;;;;21.92;19.63;;;21.60;99.90;;;;;;5027526;28;20456;-60
2023/08/21 06:27:31;;;;;;;21.17;19.08;;;21.60;99.90;;;;;;5031142;28;20037;-58
2023/08/21 06:29:56;;;;;;;20.77;18.58;;;21.70;99.90;;;;;;5029005;28;20049;-59
2023/08/21 06:32:22;;;;;;;20.58;18.48;;;21.80;99.90;;;;;;5026160;28;20022;-59
2023/08/21 06:34:48;;;;;;;18.55;16.95;;;21.80;99.90;;;;;;5029265;28;20033;-58
2023/08/21 06:37:14;;;;;;;20.33;18.58;;;21.90;99.90;;;;;;5029707;28;20029;-60
2023/08/21 06:39:39;;;;;;;21.60;19.58;;;22.00;99.90;;;;;;5036139;28;20052;-57
2023/08/21 06:42:05;;;;;;;19.20;17.45;;;22.00;99.90;;;;;;5031996;28;20405;-59
2023/08/21 06:44:31;;;;;;;20.52;18.58;;;22.10;99.90;;;;;;5035086;28;20053;-58
2023/08/21 06:46:56;;;;;;;18.40;16.23;;;22.20;99.90;;;;;;5032559;28;20643;-58
2023/08/21 06:49:23;;;;;;;18.02;16.23;;;22.20;99.90;;;;;;5031486;28;20025;-59
2023/08/21 06:51:49;;;;;;;17.83;16.08;;;22.40;99.90;;;;;;5036149;28;20104;-60
2023/08/21 06:54:14;;;;;;;17.55;15.77;;;22.40;99.90;;;;;;5032487;28;20038;-58
2023/08/21 06:56:40;;;;;;;20.88;15.43;;;22.50;99.90;;;;;;5036726;28;20454;-57
2023/08/21 06:59:05;;;;;;;18.25;16.55;;;22.50;99.90;;;;;;5031222;28;20038;-59
2023/08/21 07:01:31;;;;;;;18.15;16.23;;;22.70;99.90;;;;;;5031896;28;20378;-58
2023/08/21 07:03:57;;;;;;;17.80;16.20;;;22.70;99.90;;;;;;5033141;28;20087;-57
2023/08/21 07:06:22;;;;;;;18.27;16.63;;;22.80;99.90;;;;;;5031933;28;20026;-59
2023/08/21 07:08:48;;;;;;;18.25;16.42;;;22.90;99.90;;;;;;5034880;28;20029;-57
2023/08/21 07:11:14;;;;;;;17.73;16.30;;;23.00;99.90;;;;;;5034130;28;20026;-58
2023/08/21 07:13:39;;;;;;;17.75;16.13;;;23.00;99.90;;;;;;5015977;28;20033;-58
2023/08/21 07:16:06;;;;;;;17.50;16.08;;;23.10;99.90;;;;;;5035603;28;20029;-59
2023/08/21 07:18:35;;;;;;;16.75;15.32;;;23.20;99.90;;;;;;5032584;28;20030;-59
2023/08/21 07:21:04;;;;;;;14.15;12.95;;;23.30;99.90;;;;;;5036246;28;20044;-60
2023/08/21 07:23:30;;;;;;;13.85;12.73;;;23.40;99.90;;;;;;5039875;28;20500;-58
2023/08/21 07:25:57;;;;;;;13.02;11.95;;;23.50;99.90;;;;;;5036734;28;20034;-60
2023/08/21 07:28:22;;;;;;;13.73;12.38;;;23.50;99.90;;;;;;5028773;28;20099;-60
2023/08/21 07:30:48;;;;;;;13.30;11.82;;;23.60;99.90;;;;;;5026603;28;20497;-59
2023/08/21 07:33:14;;;;;;;13.00;11.25;;;23.60;99.90;;;;;;5027296;28;20086;-60
2023/08/21 07:35:39;;;;;;;12.88;11.88;;;23.70;99.90;;;;;;5033774;28;20545;-59
2023/08/21 07:38:05;;;;;;;14.55;12.68;;;23.80;99.90;;;;;;5033788;28;20394;-60
2023/08/21 07:40:31;;;;;;;12.35;11.35;;;23.80;99.90;;;;;;5035444;28;20022;-60
2023/08/21 07:42:57;;;;;;;11.98;10.98;;;23.90;99.90;;;;;;5030288;28;20037;-60
2023/08/21 07:45:22;;;;;;;12.40;11.00;;;23.90;99.90;;;;;;5032861;28;20068;-58
2023/08/21 07:47:48;;;;;;;11.05;9.75;;;24.10;99.90;;;;;;5034776;28;20037;-59
2023/08/21 07:50:16;;;;;;;10.65;9.75;;;24.20;99.90;;;;;;5035212;28;20033;-60
2023/08/21 07:52:42;;;;;;;10.52;9.50;;;24.30;99.90;;;;;;5025177;28;20041;-60
2023/08/21 07:55:08;;;;;;;9.40;8.60;;;24.30;99.90;;;;;;5028751;28;20071;-59
2023/08/21 07:57:33;;;;;;;10.88;9.98;;;24.40;99.90;;;;;;5022060;28;20517;-58
2023/08/21 07:59:59;;;;;;;10.98;10.18;;;24.50;99.90;;;;;;5029464;28;20022;-59
2023/08/21 08:02:25;;;;;;;11.65;10.57;;;24.60;99.90;;;;;;5027744;28;20390;-58
2023/08/21 08:04:50;;;;;;;13.65;9.48;;;24.70;99.90;;;;;;5025200;28;20045;-59
2023/08/21 08:07:16;;;;;;;11.05;10.05;;;24.80;99.90;;;;;;5026176;28;20022;-59
2023/08/21 08:09:41;;;;;;;11.65;9.90;;;25.00;99.90;;;;;;5029142;28;20056;-57
2023/08/21 08:12:07;;;;;;;11.70;10.57;;;25.10;99.90;;;;;;5022317;28;20036;-58
2023/08/21 08:14:33;;;;;;;11.35;10.35;;;25.20;99.90;;;;;;5025345;28;20079;-58
2023/08/21 08:16:59;;;;;;;10.77;9.77;;;25.20;99.90;;;;;;5024311;28;20502;-59
2023/08/21 08:19:24;;;;;;;11.93;10.75;;;25.30;99.90;;;;;;5029890;28;20029;-58
2023/08/21 08:21:53;;;;;;;13.05;11.95;;;25.30;99.90;;;;;;5028214;28;20033;-58
2023/08/21 08:24:18;;;;;;;12.38;10.93;;;25.30;99.90;;;;;;5029343;28;20462;-60
2023/08/21 08:26:44;;;;;;;12.38;11.27;;;25.40;99.90;;;;;;5027921;28;20037;-59
2023/08/21 08:29:09;;;;;;;13.35;11.02;;;25.40;99.90;;;;;;5024415;28;20037;-58
2023/08/21 08:31:35;;;;;;;12.30;10.93;;;25.50;99.90;;;;;;5028266;28;20040;-58
2023/08/21 08:34:01;;;;;;;11.38;10.15;;;25.60;99.90;;;;;;5027246;28;20029;-59
2023/08/21 08:36:26;;;;;;;10.60;9.68;;;25.70;99.90;;;;;;5028472;28;20402;-56
2023/08/21 08:38:52;;;;;;;10.23;9.23;;;25.80;99.90;;;;;;5029794;28;20108;-60
2023/08/21 08:41:28;;;;;;;15.05;9.63;;;25.80;99.90;;;;;;5029814;28;20057;-58
2023/08/21 08:43:57;;;;;;;10.00;9.27;;;25.90;99.90;;;;;;5031349;28;20036;-59
2023/08/21 08:46:24;;;;;;;10.10;9.30;;;25.90;99.90;;;;;;5029248;28;20497;-59
2023/08/21 08:48:51;;;;;;;10.45;9.55;;;26.00;99.90;;;;;;5028918;28;20052;-60
2023/08/21 08:51:17;;;;;;;14.00;10.20;;;26.00;99.90;;;;;;5026141;28;20064;-57
2023/08/21 08:53:44;;;;;;;10.73;9.80;;;26.10;99.90;;;;;;5029545;28;20081;-60
2023/08/21 08:56:09;;;;;;;10.77;9.95;;;26.10;99.90;;;;;;5027195;28;20053;-56
2023/08/21 08:58:35;;;;;;;10.57;9.48;;;26.20;99.90;;;;;;5027990;28;20494;-57
2023/08/21 09:01:01;;;;;;;12.65;9.98;;;26.30;99.90;;;;;;5029013;28;20112;-58
2023/08/21 09:03:27;;;;;;;10.63;9.82;;;26.30;99.90;;;;;;5028087;28;20033;-58
2023/08/21 09:05:53;;;;;;;11.52;9.50;;;26.40;99.90;;;;;;5020710;28;20472;-60
2023/08/21 09:08:19;;;;;;;11.15;10.10;;;26.40;99.90;;;;;;5022649;28;20122;-60
2023/08/21 09:10:45;;;;;;;11.52;9.18;;;26.50;99.90;;;;;;5026233;28;20489;-59
2023/08/21 09:13:16;;;;;;;17.73;9.13;;;26.70;99.90;;;;;;5028111;28;20044;-61
2023/08/21 09:15:53;;;;;;;10.25;9.20;;;26.80;99.90;;;;;;5024718;28;20034;-60
2023/08/21 09:18:19;;;;;;;10.27;9.27;;;26.90;99.90;;;;;;5027348;28;20116;-59
2023/08/21 09:20:45;;;;;;;11.10;10.07;;;27.10;99.90;;;;;;5027760;28;20128;-59
2023/08/21 09:23:17;;;;;;;14.10;9.55;;;27.30;99.90;;;;;;5027796;28;20034;-60
2023/08/21 09:25:47;;;;;;;11.27;9.88;;;27.40;99.90;;;;;;5027986;28;20041;-59
2023/08/21 09:28:14;;;;;;;9.23;8.38;;;27.60;99.90;;;;;;5028602;28;20560;-58
2023/08/21 09:30:46;;;;;;;8.75;8.02;;;27.80;99.90;;;;;;5026474;28;20033;-60
2023/08/21 09:33:11;;;;;;;8.65;7.95;;;27.90;99.90;;;;;;5028443;28;20083;-57
2023/08/21 09:35:39;;;;;;;8.75;7.35;;;28.00;99.90;;;;;;5035372;28;20034;-58
2023/08/21 09:38:06;;;;;;;8.85;7.60;;;28.20;99.90;;;;;;5027222;28;20489;-61
2023/08/21 09:40:32;;;;;;;6.50;5.90;;;28.30;99.90;;;;;;5030898;28;20141;-56
2023/08/21 09:42:58;;;;;;;8.48;6.30;;;28.40;99.90;;;;;;5029315;28;20124;-61
2023/08/21 09:45:27;;;;;;;6.10;5.00;;;28.50;99.90;;;;;;5032265;28;20026;-59
2023/08/21 09:47:53;;;;;;;10.77;6.00;;;28.60;99.90;;;;;;5032128;28;20505;-59
2023/08/21 09:50:19;;;;;;;9.52;5.65;;;28.60;99.90;;;;;;5030047;28;20092;-60
2023/08/21 09:52:46;;;;;;;8.25;6.10;;;28.70;99.90;;;;;;5032292;28;20033;-59
2023/08/21 09:55:14;;;;;;;7.07;6.05;;;28.70;99.90;;;;;;5029157;28;20564;-59
2023/08/21 09:57:41;;;;;;;8.10;6.03;;;28.80;99.90;;;;;;5025277;28;20402;-58
2023/08/21 10:00:19;;;;;;;5.50;5.03;;;28.90;99.90;;;;;;5024294;28;20026;-57
2023/08/21 10:02:50;;;;;;;8.05;5.28;;;29.00;99.90;;;;;;5024077;28;20108;-58
2023/08/21 10:05:16;;;;;;;;;;;29.00;99.90;;;;;;5024983;28;20455;-58
2023/08/21 10:07:43;;;;;;;5.82;5.32;;;29.10;99.90;;;;;;5025769;28;20036;-58
2023/08/21 10:10:11;;;;;;;9.10;5.18;;;29.10;99.90;;;;;;5025883;28;20029;-57
2023/08/21 10:12:37;;;;;;;11.75;4.70;;;29.20;99.90;;;;;;5026295;28;20049;-59
2023/08/21 10:15:03;;;;;;;5.13;4.72;;;29.20;99.90;;;;;;5024699;28;20056;-58
2023/08/21 10:17:31;;;;;;;8.05;4.50;;;29.20;99.90;;;;;;5030369;28;20104;-59
2023/08/21 10:20:06;;;;;;;5.10;4.55;;;29.10;99.90;;;;;;5033117;28;20443;-59
2023/08/21 10:22:48;;;;;;;5.18;4.78;;;29.20;99.90;;;;;;5026282;28;20113;-58
2023/08/21 10:25:21;;;;;;;5.13;3.13;;;29.20;99.90;;;;;;5018831;28;20619;-58
2023/08/21 10:27:54;;;;;;;4.00;3.60;;;29.30;99.90;;;;;;5022126;28;20041;-59
2023/08/21 10:30:25;;;;;;;6.38;3.10;;;29.30;99.90;;;;;;5036307;28;20022;-58
2023/08/21 10:32:53;;;;;;;4.35;3.70;;;29.40;99.90;;;;;;5030967;28;20025;-60
2023/08/21 10:35:21;;;;;;;5.85;3.20;;;29.40;99.90;;;;;;5026150;28;20068;-58
2023/08/21 10:38:08;;;;;;;4.78;3.20;;;29.50;99.90;;;;;;5025668;28;20025;-59
2023/08/21 10:40:35;;;;;;;2.95;2.65;;;29.50;99.90;;;;;;5025570;28;20029;-58
2023/08/21 10:43:01;;;;;;;2.92;2.67;;;29.50;99.90;;;;;;5026670;28;20129;-59
2023/08/21 10:45:26;;;;;;;4.40;3.60;;;29.60;99.90;;;;;;5024026;28;20022;-60
2023/08/21 10:47:52;;;;;;;7.28;2.45;;;29.60;99.90;;;;;;5026062;28;20032;-58
2023/08/21 10:50:18;;;;;;;4.32;2.35;;;29.70;96.70;;;;;;5025874;28;20037;-59
2023/08/21 10:52:47;;;;;;;5.80;2.90;;;29.70;98.00;;;;;;5022217;28;20490;-59
2023/08/21 10:55:18;;;;;;;5.47;2.97;;;29.80;94.10;;;;;;5028979;28;20032;-61
2023/08/21 10:57:45;;;;;;;8.38;2.92;;;29.80;94.90;;;;;;5030436;28;20087;-57
2023/08/21 11:00:16;;;;;;;3.75;2.83;;;29.90;99.90;;;;;;5024158;28;20030;-59
2023/08/21 11:02:44;;;;;;;4.30;2.60;;;30.00;99.90;;;;;;5029508;28;20383;-59
2023/08/21 11:05:11;;;;;;;5.60;3.00;;;30.00;98.40;;;;;;5022951;28;20508;-58
2023/08/21 11:07:45;;;;;;;5.63;2.90;;;30.00;95.00;;;;;;5025815;28;20413;-60
2023/08/21 11:10:13;;;;;;;5.18;2.17;;;30.10;92.00;;;;;;5018686;28;20148;-60
2023/08/21 11:12:51;;;;;;;5.35;2.65;;;30.10;96.80;;;;;;5022270;28;20033;-59
2023/08/21 11:15:18;;;;;;;2.83;2.47;;;30.10;96.10;;;;;;5024116;28;20494;-60
2023/08/21 11:18:04;;;;;;;2.60;2.40;;;30.10;88.70;;;;;;5020905;28;20037;-59
2023/08/21 11:20:33;;;;;;;3.20;2.33;;;30.20;94.50;;;;;;5001287;28;20050;-58
2023/08/21 11:23:07;;;;;;;3.50;2.38;;;30.20;94.80;;;;;;5022350;28;20030;-57
2023/08/21 11:25:34;;;;;;;5.00;2.78;;;30.20;95.20;;;;;;5008702;28;20037;-59
2023/08/21 11:28:02;;;;;;;3.50;2.55;;;30.20;94.10;;;;;;5018733;28;20033;-58
2023/08/21 11:30:28;;;;;;;3.58;2.65;;;30.30;96.20;;;;;;5037945;28;20136;-58
2023/08/21 11:33:06;;;;;;;2.65;2.45;;;30.30;92.40;;;;;;5034001;28;20108;-59
2023/08/21 11:35:31;;;;;;;5.20;3.50;;;30.30;95.90;;;;;;5027172;28;20030;-58
2023/08/21 11:37:57;;;;;;;3.28;2.95;;;30.30;90.20;;;;;;5025963;28;20037;-57
2023/08/21 11:40:23;;;;;;;3.92;2.60;;;30.30;95.40;;;;;;5025628;28;20048;-58
2023/08/21 11:42:52;;;;;;;4.43;2.50;;;30.40;99.90;;;;;;5030667;28;20033;-59
2023/08/21 11:45:20;;;;;;;3.22;2.95;;;30.50;97.80;;;;;;5030003;28;20520;-59
2023/08/21 11:47:46;;;;;;;3.60;2.55;;;30.60;93.20;;;;;;5030131;28;20570;-59
2023/08/21 11:50:15;;;;;;;4.22;2.65;;;30.60;91.50;;;;;;5031806;28;20124;-58
2023/08/21 11:52:42;;;;;;;3.95;2.60;;;30.70;93.70;;;;;;5029514;28;20045;-60
2023/08/21 11:55:11;;;;;;;5.10;2.65;;;30.70;88.30;;;;;;5028694;28;20026;-59
2023/08/21 11:57:49;;;;;;;5.82;2.97;;;30.70;90.10;;;;;;5027188;28;20140;-57
2023/08/21 12:00:21;;;;;;;5.57;2.83;;;30.80;85.80;;;;;;5030664;28;20540;-60
2023/08/21 12:02:59;;;;;;;5.38;2.47;;;30.80;86.10;;;;;;5022012;28;20402;-58
2023/08/21 12:05:26;;;;;;;2.70;2.50;;;30.90;87.50;;;;;;5028257;28;20040;-57
2023/08/21 12:07:53;;;;;;;4.70;2.40;;;31.00;91.30;;;;;;5030445;28;20064;-58
2023/08/21 12:10:28;;;;;;;2.83;2.50;;;31.10;90.90;;;;;;5028085;28;20072;-58
2023/08/21 12:12:55;;;;;;;4.85;2.30;;;31.10;83.40;;;;;;5028570;28;20397;-57
2023/08/21 12:15:21;;;;;;;3.00;2.20;;;31.20;88.30;;;;;;5031119;28;20057;-60
2023/08/21 12:17:46;;;;;;;2.97;1.67;;;31.30;78.70;;;;;;5033655;28;20056;-59
2023/08/21 12:20:12;;;;;;;2.20;2.00;;;31.30;80.20;;;;;;5028484;28;20618;-58
2023/08/21 12:22:42;;;;;;;2.72;1.95;;;31.40;79.10;;;;;;5031756;28;20158;-59
2023/08/21 12:25:09;;;;;;;3.03;1.70;;;31.40;73.80;;;;;;5030138;28;20092;-60
2023/08/21 12:27:36;;;;;;;3.22;1.98;;;31.40;72.50;;;;;;5027180;28;20121;-58
2023/08/21 12:30:01;;;;;;;4.82;2.38;;;31.50;77.60;;;;;;5028123;28;20032;-57
2023/08/21 12:32:27;;;;;;;2.67;2.40;;;31.50;75.30;;;;;;5026160;28;20029;-59